sensor_id;sensor_type;location;lat;lon;timestamp;pressure;altitude;pressure_sealevel;temperature;humidity
11395;BME280;5753;54.402;10.220;2023-06-04T00:02:23;102350.34;;;22.73;38.48
11395;BME280;5753;54.402;10.220;2023-06-04T00:04:50;102351.75;;;22.14;39.64
11395;BME280;5753;54.402;10.220;2023-06-04T00:07:16;102346.34;;;22.36;39.58
11395;BME280;5753;54.402;10.220;2023-06-04T00:09:42;102349.69;;;22.50;39.30
11395;BME280;5753;54.402;10.220;2023-06-04T00:12:08;102346.25;;;23.28;37.70
11395;BME280;5753;54.402;10.220;2023-06-04T00:14:34;102343.56;;;23.31;37.59
11395;BME280;5753;54.402;10.220;2023-06-04T00:17:00;102336.31;;;23.48;36.91
11395;BME280;5753;54.402;10.220;2023-06-04T00:19:27;102336.66;;;23.23;38.02
11395;BME280;5753;54.402;10.220;2023-06-04T00:21:53;102336.72;;;23.16;37.87
11395;BME280;5753;54.402;10.220;2023-06-04T00:24:19;102337.06;;;22.88;38.27
11395;BME280;5753;54.402;10.220;2023-06-04T00:26:45;102335.84;;;22.33;39.99
11395;BME280;5753;54.402;10.220;2023-06-04T00:29:11;102335.78;;;22.40;39.84
11395;BME280;5753;54.402;10.220;2023-06-04T00:31:37;102331.03;;;22.80;39.34
11395;BME280;5753;54.402;10.220;2023-06-04T00:34:04;102333.44;;;22.05;40.23
11395;BME280;5753;54.402;10.220;2023-06-04T00:36:31;102334.41;;;22.90;39.32
11395;BME280;5753;54.402;10.220;2023-06-04T00:38:57;102328.94;;;22.24;40.85
11395;BME280;5753;54.402;10.220;2023-06-04T00:41:23;102328.81;;;22.35;39.93
11395;BME280;5753;54.402;10.220;2023-06-04T00:43:49;102336.59;;;22.45;39.65
11395;BME280;5753;54.402;10.220;2023-06-04T00:46:23;102340.34;;;22.17;40.29
11395;BME280;5753;54.402;10.220;2023-06-04T00:48:51;102338.69;;;22.07;40.51
11395;BME280;5753;54.402;10.220;2023-06-04T00:51:18;102334.81;;;22.50;39.97
11395;BME280;5753;54.402;10.220;2023-06-04T00:53:48;102340.34;;;22.17;40.63
11395;BME280;5753;54.402;10.220;2023-06-04T00:56:14;102329.81;;;23.07;38.73
11395;BME280;5753;54.402;10.220;2023-06-04T00:58:40;102328.84;;;23.14;38.38
11395;BME280;5753;54.402;10.220;2023-06-04T01:01:31;102328.22;;;22.96;38.83
11395;BME280;5753;54.402;10.220;2023-06-04T01:04:00;102329.28;;;22.81;38.78
11395;BME280;5753;54.402;10.220;2023-06-04T01:06:39;102327.63;;;22.65;38.85
11395;BME280;5753;54.402;10.220;2023-06-04T01:09:10;102334.84;;;22.47;38.61
11395;BME280;5753;54.402;10.220;2023-06-04T01:11:38;102332.22;;;22.44;38.56
11395;BME280;5753;54.402;10.220;2023-06-04T01:14:05;102326.94;;;22.49;38.33
11395;BME280;5753;54.402;10.220;2023-06-04T01:22:07;102332.44;;;22.18;39.54
11395;BME280;5753;54.402;10.220;2023-06-04T01:24:38;102326.19;;;22.36;39.76
11395;BME280;5753;54.402;10.220;2023-06-04T01:27:07;102322.84;;;22.16;40.00
11395;BME280;5753;54.402;10.220;2023-06-04T01:29:34;102323.25;;;21.55;41.67
11395;BME280;5753;54.402;10.220;2023-06-04T01:32:02;102323.63;;;20.45;44.15
11395;BME280;5753;54.402;10.220;2023-06-04T01:34:28;102329.72;;;20.41;45.01
11395;BME280;5753;54.402;10.220;2023-06-04T01:36:54;102332.75;;;21.74;42.01
11395;BME280;5753;54.402;10.220;2023-06-04T01:39:20;102319.88;;;21.28;42.74
11395;BME280;5753;54.402;10.220;2023-06-04T01:41:46;102321.63;;;21.20;42.65
11395;BME280;5753;54.402;10.220;2023-06-04T01:44:12;102328.63;;;21.21;42.53
11395;BME280;5753;54.402;10.220;2023-06-04T01:46:38;102329.63;;;20.81;43.50
11395;BME280;5753;54.402;10.220;2023-06-04T01:49:04;102324.31;;;21.06;43.31
11395;BME280;5753;54.402;10.220;2023-06-04T01:51:32;102328.59;;;21.36;42.89
11395;BME280;5753;54.402;10.220;2023-06-04T01:53:58;102322.59;;;21.05;42.91
11395;BME280;5753;54.402;10.220;2023-06-04T01:56:24;102326.59;;;21.81;41.23
11395;BME280;5753;54.402;10.220;2023-06-04T01:58:52;102325.13;;;21.22;42.29
11395;BME280;5753;54.402;10.220;2023-06-04T02:01:18;102331.97;;;21.60;41.69
11395;BME280;5753;54.402;10.220;2023-06-04T02:03:45;102330.31;;;21.42;41.87
11395;BME280;5753;54.402;10.220;2023-06-04T02:06:11;102324.94;;;21.65;41.23
11395;BME280;5753;54.402;10.220;2023-06-04T02:08:38;102330.13;;;21.79;41.17
11395;BME280;5753;54.402;10.220;2023-06-04T02:11:04;102322.00;;;22.11;40.22
11395;BME280;5753;54.402;10.220;2023-06-04T02:13:31;102326.69;;;21.63;40.87
11395;BME280;5753;54.402;10.220;2023-06-04T02:15:57;102326.75;;;21.57;41.57
11395;BME280;5753;54.402;10.220;2023-06-04T02:18:23;102331.78;;;21.90;40.90
11395;BME280;5753;54.402;10.220;2023-06-04T02:20:51;102329.28;;;21.67;41.10
11395;BME280;5753;54.402;10.220;2023-06-04T02:23:19;102336.50;;;21.26;41.84
11395;BME280;5753;54.402;10.220;2023-06-04T02:25:46;102332.22;;;20.97;42.20
11395;BME280;5753;54.402;10.220;2023-06-04T02:28:13;102332.13;;;21.26;41.89
11395;BME280;5753;54.402;10.220;2023-06-04T02:30:39;102330.50;;;20.89;42.67
11395;BME280;5753;54.402;10.220;2023-06-04T02:33:06;102338.34;;;20.99;42.16
11395;BME280;5753;54.402;10.220;2023-06-04T02:35:32;102335.69;;;21.04;42.61
11395;BME280;5753;54.402;10.220;2023-06-04T02:37:58;102336.53;;;21.12;41.95
11395;BME280;5753;54.402;10.220;2023-06-04T02:40:28;102333.53;;;21.88;40.53
11395;BME280;5753;54.402;10.220;2023-06-04T02:42:54;102334.66;;;21.49;41.52
11395;BME280;5753;54.402;10.220;2023-06-04T02:45:21;102340.75;;;21.56;40.84
11395;BME280;5753;54.402;10.220;2023-06-04T02:47:47;102337.47;;;20.99;42.09
11395;BME280;5753;54.402;10.220;2023-06-04T02:50:14;102344.38;;;21.18;42.06
11395;BME280;5753;54.402;10.220;2023-06-04T02:52:44;102341.03;;;20.61;43.21
11395;BME280;5753;54.402;10.220;2023-06-04T02:55:10;102345.25;;;21.29;41.52
11395;BME280;5753;54.402;10.220;2023-06-04T02:57:39;102337.47;;;20.96;43.16
11395;BME280;5753;54.402;10.220;2023-06-04T03:00:08;102347.19;;;20.51;43.94
11395;BME280;5753;54.402;10.220;2023-06-04T03:02:41;102341.94;;;20.54;44.07
11395;BME280;5753;54.402;10.220;2023-06-04T03:05:09;102335.78;;;20.83;42.93
11395;BME280;5753;54.402;10.220;2023-06-04T03:07:40;102340.00;;;21.17;42.57
11395;BME280;5753;54.402;10.220;2023-06-04T03:10:09;102346.03;;;21.47;41.93
11395;BME280;5753;54.402;10.220;2023-06-04T03:12:35;102346.09;;;21.38;41.93
11395;BME280;5753;54.402;10.220;2023-06-04T03:15:02;102346.09;;;21.38;41.53
11395;BME280;5753;54.402;10.220;2023-06-04T03:17:29;102345.22;;;21.35;42.74
11395;BME280;5753;54.402;10.220;2023-06-04T03:19:57;102358.38;;;21.32;42.33
11395;BME280;5753;54.402;10.220;2023-06-04T03:22:23;102346.25;;;20.89;43.75
11395;BME280;5753;54.402;10.220;2023-06-04T03:24:49;102350.66;;;20.65;44.22
11395;BME280;5753;54.402;10.220;2023-06-04T03:27:16;102341.00;;;20.80;44.06
11395;BME280;5753;54.402;10.220;2023-06-04T03:29:42;102349.75;;;20.33;44.54
11395;BME280;5753;54.402;10.220;2023-06-04T03:32:08;102345.38;;;20.76;44.44
11395;BME280;5753;54.402;10.220;2023-06-04T03:34:34;102343.44;;;21.44;42.04
11395;BME280;5753;54.402;10.220;2023-06-04T03:37:00;102342.63;;;21.20;43.21
11395;BME280;5753;54.402;10.220;2023-06-04T03:39:26;102347.69;;;21.63;41.98
11395;BME280;5753;54.402;10.220;2023-06-04T03:41:53;102345.16;;;21.48;42.40
11395;BME280;5753;54.402;10.220;2023-06-04T03:44:19;102347.72;;;21.57;41.85
11395;BME280;5753;54.402;10.220;2023-06-04T03:46:46;102346.09;;;21.28;42.97
11395;BME280;5753;54.402;10.220;2023-06-04T03:49:13;102343.19;;;21.85;41.76
11395;BME280;5753;54.402;10.220;2023-06-04T03:51:41;102351.09;;;21.83;41.95
11395;BME280;5753;54.402;10.220;2023-06-04T03:54:07;102341.75;;;21.26;42.92
11395;BME280;5753;54.402;10.220;2023-06-04T03:56:33;102351.41;;;21.13;43.28
11395;BME280;5753;54.402;10.220;2023-06-04T03:58:59;102346.13;;;21.33;42.87
11395;BME280;5753;54.402;10.220;2023-06-04T04:01:26;102344.88;;;21.93;41.99
11395;BME280;5753;54.402;10.220;2023-06-04T04:03:53;102339.75;;;21.71;42.46
11395;BME280;5753;54.402;10.220;2023-06-04T04:06:20;102347.88;;;21.16;44.02
11395;BME280;5753;54.402;10.220;2023-06-04T04:08:46;102347.81;;;21.42;43.51
11395;BME280;5753;54.402;10.220;2023-06-04T04:11:15;102340.50;;;21.92;42.30
11395;BME280;5753;54.402;10.220;2023-06-04T04:13:41;102344.06;;;21.85;42.58
11395;BME280;5753;54.402;10.220;2023-06-04T04:16:08;102343.13;;;21.94;42.61
11395;BME280;5753;54.402;10.220;2023-06-04T04:18:35;102340.38;;;22.14;42.11
11395;BME280;5753;54.402;10.220;2023-06-04T04:21:02;102347.72;;;21.57;43.03
11395;BME280;5753;54.402;10.220;2023-06-04T04:23:29;102343.13;;;21.92;42.73
11395;BME280;5753;54.402;10.220;2023-06-04T04:25:55;102345.66;;;22.11;42.23
11395;BME280;5753;54.402;10.220;2023-06-04T04:28:22;102345.72;;;21.98;42.01
11395;BME280;5753;54.402;10.220;2023-06-04T04:30:48;102342.00;;;22.30;41.35
11395;BME280;5753;54.402;10.220;2023-06-04T04:33:15;102344.03;;;21.91;42.12
11395;BME280;5753;54.402;10.220;2023-06-04T04:35:44;102348.81;;;22.49;41.88
11395;BME280;5753;54.402;10.220;2023-06-04T04:38:11;102344.81;;;22.03;41.98
11395;BME280;5753;54.402;10.220;2023-06-04T04:40:37;102348.16;;;22.27;41.64
11395;BME280;5753;54.402;10.220;2023-06-04T04:43:04;102348.31;;;22.06;42.11
11395;BME280;5753;54.402;10.220;2023-06-04T04:45:30;102356.34;;;21.76;42.38
11395;BME280;5753;54.402;10.220;2023-06-04T04:47:56;102356.22;;;21.98;42.54
11395;BME280;5753;54.402;10.220;2023-06-04T04:50:22;102347.22;;;22.33;41.61
11395;BME280;5753;54.402;10.220;2023-06-04T04:52:48;102358.88;;;21.95;42.40
11395;BME280;5753;54.402;10.220;2023-06-04T04:55:14;102354.84;;;22.59;41.54
11395;BME280;5753;54.402;10.220;2023-06-04T04:57:40;102355.66;;;22.66;40.17
11395;BME280;5753;54.402;10.220;2023-06-04T05:00:07;102361.13;;;22.44;41.49
11395;BME280;5753;54.402;10.220;2023-06-04T05:02:36;102352.03;;;21.67;43.35
11395;BME280;5753;54.402;10.220;2023-06-04T05:05:03;102343.19;;;22.89;40.66
11395;BME280;5753;54.402;10.220;2023-06-04T05:07:29;102346.09;;;22.58;41.04
11395;BME280;5753;54.402;10.220;2023-06-04T05:09:55;102352.91;;;21.66;43.14
11395;BME280;5753;54.402;10.220;2023-06-04T05:12:21;102339.91;;;23.41;40.27
11395;BME280;5753;54.402;10.220;2023-06-04T05:14:47;102349.13;;;22.13;42.24
11395;BME280;5753;54.402;10.220;2023-06-04T05:17:13;102346.16;;;22.54;41.86
11395;BME280;5753;54.402;10.220;2023-06-04T05:19:42;102350.22;;;21.83;43.55
11395;BME280;5753;54.402;10.220;2023-06-04T05:22:08;102343.09;;;22.97;41.11
11395;BME280;5753;54.402;10.220;2023-06-04T05:24:34;102346.31;;;22.37;41.75
11395;BME280;5753;54.402;10.220;2023-06-04T05:27:00;102351.53;;;22.42;42.36
11395;BME280;5753;54.402;10.220;2023-06-04T05:29:29;102350.84;;;23.07;40.86
11395;BME280;5753;54.402;10.220;2023-06-04T05:31:55;102348.63;;;22.72;41.04
11395;BME280;5753;54.402;10.220;2023-06-04T05:34:21;102347.53;;;23.64;39.53
11395;BME280;5753;54.402;10.220;2023-06-04T05:36:47;102348.38;;;22.97;41.09
11395;BME280;5753;54.402;10.220;2023-06-04T05:39:14;102346.28;;;23.24;39.95
11395;BME280;5753;54.402;10.220;2023-06-04T05:41:40;102351.63;;;23.15;40.76
11395;BME280;5753;54.402;10.220;2023-06-04T05:44:06;102356.56;;;23.43;39.38
11395;BME280;5753;54.402;10.220;2023-06-04T05:46:32;102351.31;;;24.57;37.60
11395;BME280;5753;54.402;10.220;2023-06-04T05:48:58;102355.06;;;23.23;39.06
11395;BME280;5753;54.402;10.220;2023-06-04T05:51:25;102358.22;;;22.76;40.05
11395;BME280;5753;54.402;10.220;2023-06-04T05:53:51;102359.69;;;23.03;39.90
11395;BME280;5753;54.402;10.220;2023-06-04T05:56:17;102357.53;;;22.54;40.57
11395;BME280;5753;54.402;10.220;2023-06-04T05:58:43;102354.72;;;23.48;38.77
11395;BME280;5753;54.402;10.220;2023-06-04T06:01:09;102350.25;;;23.58;38.63
11395;BME280;5753;54.402;10.220;2023-06-04T06:03:35;102353.81;;;23.50;38.62
11395;BME280;5753;54.402;10.220;2023-06-04T06:06:02;102353.81;;;23.50;38.44
11395;BME280;5753;54.402;10.220;2023-06-04T06:08:28;102356.75;;;23.94;37.19
11395;BME280;5753;54.402;10.220;2023-06-04T06:10:54;102356.09;;;24.35;36.55
11395;BME280;5753;54.402;10.220;2023-06-04T06:13:21;102364.16;;;24.24;37.11
11395;BME280;5753;54.402;10.220;2023-06-04T06:15:47;102362.78;;;24.54;36.28
11395;BME280;5753;54.402;10.220;2023-06-04T06:18:18;102356.31;;;23.63;37.57
11395;BME280;5753;54.402;10.220;2023-06-04T06:20:44;102363.44;;;24.16;37.06
11395;BME280;5753;54.402;10.220;2023-06-04T06:23:10;102355.78;;;23.98;36.34
11395;BME280;5753;54.402;10.220;2023-06-04T06:25:36;102354.22;;;24.41;35.83
11395;BME280;5753;54.402;10.220;2023-06-04T06:28:03;102354.28;;;24.38;35.89
11395;BME280;5753;54.402;10.220;2023-06-04T06:30:29;102358.81;;;23.73;37.07
11395;BME280;5753;54.402;10.220;2023-06-04T06:32:55;102359.91;;;23.57;37.61
11395;BME280;5753;54.402;10.220;2023-06-04T06:35:22;102364.16;;;24.76;35.64
11395;BME280;5753;54.402;10.220;2023-06-04T06:37:48;102359.97;;;24.12;37.07
11395;BME280;5753;54.402;10.220;2023-06-04T06:40:14;102364.94;;;24.32;36.27
11395;BME280;5753;54.402;10.220;2023-06-04T06:42:40;102362.84;;;24.51;35.05
11395;BME280;5753;54.402;10.220;2023-06-04T06:45:06;102366.81;;;24.75;34.84
11395;BME280;5753;54.402;10.220;2023-06-04T06:47:33;102364.41;;;25.10;34.72
11395;BME280;5753;54.402;10.220;2023-06-04T06:49:59;102370.88;;;25.36;33.47
11395;BME280;5753;54.402;10.220;2023-06-04T06:52:25;102371.00;;;25.73;33.83
11395;BME280;5753;54.402;10.220;2023-06-04T06:54:51;102372.06;;;25.23;33.00
11395;BME280;5753;54.402;10.220;2023-06-04T06:57:18;102377.59;;;25.10;33.47
11395;BME280;5753;54.402;10.220;2023-06-04T06:59:45;102379.78;;;25.32;33.35
11395;BME280;5753;54.402;10.220;2023-06-04T07:02:11;102383.47;;;24.26;34.73
11395;BME280;5753;54.402;10.220;2023-06-04T07:04:37;102380.69;;;25.72;32.91
11395;BME280;5753;54.402;10.220;2023-06-04T07:07:03;102380.28;;;25.89;32.99
11395;BME280;5753;54.402;10.220;2023-06-04T07:09:29;102395.88;;;26.01;33.22
11395;BME280;5753;54.402;10.220;2023-06-04T07:11:55;102391.00;;;26.20;31.78
11395;BME280;5753;54.402;10.220;2023-06-04T07:14:21;102394.09;;;26.02;32.54
11395;BME280;5753;54.402;10.220;2023-06-04T07:16:47;102389.13;;;26.25;32.43
11395;BME280;5753;54.402;10.220;2023-06-04T07:19:13;102388.75;;;26.05;32.98
11395;BME280;5753;54.402;10.220;2023-06-04T07:21:39;102385.47;;;25.94;33.49
11395;BME280;5753;54.402;10.220;2023-06-04T07:24:06;102384.38;;;26.40;32.98
11395;BME280;5753;54.402;10.220;2023-06-04T07:26:32;102387.28;;;26.64;32.69
11395;BME280;5753;54.402;10.220;2023-06-04T07:28:59;102381.03;;;25.56;34.71
11395;BME280;5753;54.402;10.220;2023-06-04T07:31:25;102390.28;;;25.77;34.59
11395;BME280;5753;54.402;10.220;2023-06-04T07:33:51;102388.13;;;25.52;34.54
11395;BME280;5753;54.402;10.220;2023-06-04T07:36:17;102389.50;;;24.84;35.09
11395;BME280;5753;54.402;10.220;2023-06-04T07:38:43;102390.91;;;24.54;35.51
11395;BME280;5753;54.402;10.220;2023-06-04T07:41:10;102387.97;;;25.61;33.46
11395;BME280;5753;54.402;10.220;2023-06-04T07:43:37;102392.00;;;25.36;33.80
11395;BME280;5753;54.402;10.220;2023-06-04T07:46:04;102393.63;;;26.57;32.12
11395;BME280;5753;54.402;10.220;2023-06-04T07:48:30;102393.88;;;26.81;31.38
11395;BME280;5753;54.402;10.220;2023-06-04T07:51:00;102391.56;;;26.34;32.45
11395;BME280;5753;54.402;10.220;2023-06-04T07:53:27;102396.78;;;26.72;32.53
11395;BME280;5753;54.402;10.220;2023-06-04T07:55:54;102400.22;;;27.08;31.52
11395;BME280;5753;54.402;10.220;2023-06-04T07:58:20;102398.16;;;26.85;31.72
11395;BME280;5753;54.402;10.220;2023-06-04T08:00:47;102392.81;;;27.20;31.15
11395;BME280;5753;54.402;10.220;2023-06-04T08:03:13;102399.22;;;26.79;31.76
11395;BME280;5753;54.402;10.220;2023-06-04T08:05:41;102397.00;;;25.90;33.42
11395;BME280;5753;54.402;10.220;2023-06-04T08:08:07;102400.81;;;26.15;33.07
11395;BME280;5753;54.402;10.220;2023-06-04T08:10:33;102393.69;;;27.80;30.88
11395;BME280;5753;54.402;10.220;2023-06-04T08:13:00;102395.03;;;26.71;32.01
11395;BME280;5753;54.402;10.220;2023-06-04T08:15:26;102394.75;;;27.14;30.32
11395;BME280;5753;54.402;10.220;2023-06-04T08:17:52;102392.59;;;26.63;32.61
11395;BME280;5753;54.402;10.220;2023-06-04T08:20:18;102393.56;;;26.91;31.21
11395;BME280;5753;54.402;10.220;2023-06-04T08:22:44;102387.66;;;27.45;30.34
11395;BME280;5753;54.402;10.220;2023-06-04T08:25:10;102389.84;;;28.16;29.87
11395;BME280;5753;54.402;10.220;2023-06-04T08:27:37;102384.84;;;26.88;31.72
11395;BME280;5753;54.402;10.220;2023-06-04T08:30:04;102387.75;;;26.45;31.29
11395;BME280;5753;54.402;10.220;2023-06-04T08:32:31;102391.91;;;26.56;31.66
11395;BME280;5753;54.402;10.220;2023-06-04T08:34:57;102392.44;;;26.35;32.28
11395;BME280;5753;54.402;10.220;2023-06-04T08:37:23;102389.16;;;28.38;29.00
11395;BME280;5753;54.402;10.220;2023-06-04T08:39:50;102391.41;;;28.24;29.94
11395;BME280;5753;54.402;10.220;2023-06-04T08:42:24;102399.25;;;27.41;31.48
11395;BME280;5753;54.402;10.220;2023-06-04T08:44:53;102395.53;;;27.17;31.07
11395;BME280;5753;54.402;10.220;2023-06-04T08:47:20;102383.72;;;27.58;30.04
11395;BME280;5753;54.402;10.220;2023-06-04T08:49:50;102399.34;;;27.38;31.16
11395;BME280;5753;54.402;10.220;2023-06-04T08:52:17;102389.38;;;28.32;29.79
11395;BME280;5753;54.402;10.220;2023-06-04T08:54:49;102397.59;;;28.50;29.01
11395;BME280;5753;54.402;10.220;2023-06-04T08:57:20;102403.13;;;26.99;30.53
11395;BME280;5753;54.402;10.220;2023-06-04T08:59:50;102397.25;;;27.49;31.53
11395;BME280;5753;54.402;10.220;2023-06-04T09:02:17;102407.41;;;28.20;30.27
11395;BME280;5753;54.402;10.220;2023-06-04T09:04:44;102409.69;;;28.84;29.66
11395;BME280;5753;54.402;10.220;2023-06-04T09:07:12;102400.38;;;27.33;30.29
11395;BME280;5753;54.402;10.220;2023-06-04T09:09:39;102401.63;;;28.08;29.19
11395;BME280;5753;54.402;10.220;2023-06-04T09:12:10;102402.72;;;28.02;29.64
11395;BME280;5753;54.402;10.220;2023-06-04T09:14:37;102398.75;;;27.58;29.92
11395;BME280;5753;54.402;10.220;2023-06-04T09:17:04;102403.78;;;26.73;31.57
11395;BME280;5753;54.402;10.220;2023-06-04T09:19:31;102398.66;;;27.63;30.22
11395;BME280;5753;54.402;10.220;2023-06-04T09:21:58;102405.44;;;28.53;28.93
11395;BME280;5753;54.402;10.220;2023-06-04T09:24:37;102405.44;;;28.78;28.83
11395;BME280;5753;54.402;10.220;2023-06-04T09:27:10;102398.63;;;28.18;29.58
11395;BME280;5753;54.402;10.220;2023-06-04T09:29:37;102404.69;;;28.50;29.36
11395;BME280;5753;54.402;10.220;2023-06-04T09:32:03;102404.50;;;28.79;28.54
11395;BME280;5753;54.402;10.220;2023-06-04T09:34:30;102400.50;;;28.94;29.22
11395;BME280;5753;54.402;10.220;2023-06-04T09:36:57;102403.22;;;29.86;27.51
11395;BME280;5753;54.402;10.220;2023-06-04T09:39:24;102404.16;;;29.38;27.26
11395;BME280;5753;54.402;10.220;2023-06-04T09:42:00;102401.59;;;29.12;27.71
11395;BME280;5753;54.402;10.220;2023-06-04T09:44:28;102402.41;;;29.84;27.75
11395;BME280;5753;54.402;10.220;2023-06-04T09:46:58;102403.72;;;30.18;27.79
11395;BME280;5753;54.402;10.220;2023-06-04T09:49:24;102407.63;;;29.17;28.07
11395;BME280;5753;54.402;10.220;2023-06-04T09:51:50;102412.53;;;29.28;27.76
11395;BME280;5753;54.402;10.220;2023-06-04T09:54:17;102405.00;;;27.85;29.38
11395;BME280;5753;54.402;10.220;2023-06-04T09:56:43;102406.38;;;27.98;29.46
11395;BME280;5753;54.402;10.220;2023-06-04T09:59:10;102406.44;;;29.01;28.49
11395;BME280;5753;54.402;10.220;2023-06-04T10:01:39;102405.03;;;29.62;27.46
11395;BME280;5753;54.402;10.220;2023-06-04T10:04:08;102404.22;;;29.13;28.71
11395;BME280;5753;54.402;10.220;2023-06-04T10:06:35;102414.16;;;28.31;29.21
11395;BME280;5753;54.402;10.220;2023-06-04T10:09:08;102418.69;;;29.05;28.45
11395;BME280;5753;54.402;10.220;2023-06-04T10:11:50;102413.31;;;29.76;27.64
11395;BME280;5753;54.402;10.220;2023-06-04T10:14:52;102410.50;;;29.81;26.86
11395;BME280;5753;54.402;10.220;2023-06-04T10:17:21;102412.16;;;30.49;27.04
11395;BME280;5753;54.402;10.220;2023-06-04T10:19:49;102406.38;;;31.40;25.95
11395;BME280;5753;54.402;10.220;2023-06-04T10:22:17;102409.94;;;30.81;26.48
11395;BME280;5753;54.402;10.220;2023-06-04T10:24:44;102405.56;;;30.16;26.69
11395;BME280;5753;54.402;10.220;2023-06-04T10:27:12;102411.91;;;31.54;25.82
11395;BME280;5753;54.402;10.220;2023-06-04T10:29:39;102407.75;;;30.48;26.36
11395;BME280;5753;54.402;10.220;2023-06-04T10:32:06;102404.94;;;29.87;26.70
11395;BME280;5753;54.402;10.220;2023-06-04T10:34:32;102403.22;;;31.31;26.67
11395;BME280;5753;54.402;10.220;2023-06-04T10:36:59;102399.53;;;31.53;25.90
11395;BME280;5753;54.402;10.220;2023-06-04T10:39:29;102408.25;;;30.98;25.39
11395;BME280;5753;54.402;10.220;2023-06-04T10:42:04;102416.50;;;32.07;24.60
11395;BME280;5753;54.402;10.220;2023-06-04T10:44:31;102404.41;;;31.62;25.39
11395;BME280;5753;54.402;10.220;2023-06-04T10:46:58;102409.28;;;30.76;26.40
11395;BME280;5753;54.402;10.220;2023-06-04T10:49:31;102412.88;;;30.32;26.76
11395;BME280;5753;54.402;10.220;2023-06-04T10:51:57;102412.41;;;29.99;26.82
11395;BME280;5753;54.402;10.220;2023-06-04T10:54:29;102414.09;;;30.24;26.54
11395;BME280;5753;54.402;10.220;2023-06-04T10:56:55;102415.69;;;30.70;26.38
11395;BME280;5753;54.402;10.220;2023-06-04T10:59:21;102415.34;;;30.37;27.06
11395;BME280;5753;54.402;10.220;2023-06-04T11:01:48;102410.94;;;30.56;26.38
11395;BME280;5753;54.402;10.220;2023-06-04T11:04:24;102417.06;;;30.38;27.08
11395;BME280;5753;54.402;10.220;2023-06-04T11:07:05;102410.75;;;31.59;25.86
11395;BME280;5753;54.402;10.220;2023-06-04T11:09:35;102406.75;;;31.70;26.59
11395;BME280;5753;54.402;10.220;2023-06-04T11:12:04;102409.66;;;30.66;25.92
11395;BME280;5753;54.402;10.220;2023-06-04T11:14:30;102408.69;;;32.21;24.81
11395;BME280;5753;54.402;10.220;2023-06-04T11:16:56;102401.28;;;32.28;25.22
11395;BME280;5753;54.402;10.220;2023-06-04T11:19:23;102394.31;;;31.69;25.39
11395;BME280;5753;54.402;10.220;2023-06-04T11:21:49;102397.34;;;30.64;26.88
11395;BME280;5753;54.402;10.220;2023-06-04T11:24:17;102399.72;;;30.07;27.84
11395;BME280;5753;54.402;10.220;2023-06-04T11:26:43;102396.22;;;31.48;26.34
11395;BME280;5753;54.402;10.220;2023-06-04T11:29:11;102400.16;;;32.32;25.15
11395;BME280;5753;54.402;10.220;2023-06-04T11:31:42;102391.91;;;31.26;26.25
11395;BME280;5753;54.402;10.220;2023-06-04T11:34:08;102402.06;;;31.37;26.11
11395;BME280;5753;54.402;10.220;2023-06-04T11:36:35;102399.41;;;30.78;27.20
11395;BME280;5753;54.402;10.220;2023-06-04T11:39:03;102393.56;;;31.09;26.65
11395;BME280;5753;54.402;10.220;2023-06-04T11:41:33;102388.16;;;32.40;25.53
11395;BME280;5753;54.402;10.220;2023-06-04T11:44:02;102407.47;;;32.28;25.09
11395;BME280;5753;54.402;10.220;2023-06-04T11:46:50;102389.47;;;33.65;23.92
11395;BME280;5753;54.402;10.220;2023-06-04T11:49:18;102394.28;;;32.25;24.86
11395;BME280;5753;54.402;10.220;2023-06-04T11:51:48;102392.69;;;31.28;26.05
11395;BME280;5753;54.402;10.220;2023-06-04T11:54:19;102393.19;;;32.10;25.72
11395;BME280;5753;54.402;10.220;2023-06-04T11:56:49;102395.31;;;33.07;26.17
11395;BME280;5753;54.402;10.220;2023-06-04T11:59:17;102397.41;;;32.68;24.79
11395;BME280;5753;54.402;10.220;2023-06-04T12:01:45;102386.16;;;32.61;24.21
11395;BME280;5753;54.402;10.220;2023-06-04T12:04:16;102401.38;;;33.60;24.14
11395;BME280;5753;54.402;10.220;2023-06-04T12:06:58;102395.28;;;34.03;22.83
11395;BME280;5753;54.402;10.220;2023-06-04T12:09:34;102396.22;;;34.18;22.37
11395;BME280;5753;54.402;10.220;2023-06-04T12:12:02;102401.50;;;33.08;23.61
11395;BME280;5753;54.402;10.220;2023-06-04T12:14:29;102404.66;;;34.26;22.72
11395;BME280;5753;54.402;10.220;2023-06-04T12:17:15;102396.06;;;35.65;21.36
11395;BME280;5753;54.402;10.220;2023-06-04T12:19:48;102404.91;;;35.94;20.86
11395;BME280;5753;54.402;10.220;2023-06-04T12:22:15;102405.16;;;37.69;21.03
11395;BME280;5753;54.402;10.220;2023-06-04T12:27:15;102399.03;;;38.38;20.05
11395;BME280;5753;54.402;10.220;2023-06-04T12:29:41;102388.47;;;39.38;18.35
11395;BME280;5753;54.402;10.220;2023-06-04T12:32:08;102389.59;;;38.33;19.34
11395;BME280;5753;54.402;10.220;2023-06-04T12:34:34;102389.41;;;36.24;21.35
11395;BME280;5753;54.402;10.220;2023-06-04T12:37:01;102395.09;;;36.47;20.90
11395;BME280;5753;54.402;10.220;2023-06-04T12:39:29;102393.34;;;37.95;19.58
11395;BME280;5753;54.402;10.220;2023-06-04T12:41:58;102399.91;;;38.50;19.13
11395;BME280;5753;54.402;10.220;2023-06-04T12:44:24;102388.25;;;38.03;19.83
11395;BME280;5753;54.402;10.220;2023-06-04T12:46:50;102385.69;;;37.41;19.49
11395;BME280;5753;54.402;10.220;2023-06-04T12:49:16;102384.22;;;39.78;18.36
11395;BME280;5753;54.402;10.220;2023-06-04T12:51:42;102395.38;;;38.51;18.83
11395;BME280;5753;54.402;10.220;2023-06-04T12:54:09;102393.63;;;36.94;20.21
11395;BME280;5753;54.402;10.220;2023-06-04T12:56:36;102389.03;;;38.52;18.83
11395;BME280;5753;54.402;10.220;2023-06-04T12:59:02;102389.41;;;36.89;20.19
11395;BME280;5753;54.402;10.220;2023-06-04T13:01:28;102400.28;;;40.12;17.88